createdAt,value
2023-02-08T00:01:29.852Z,56.39
2023-02-08T00:03:33.680Z,56.64
2023-02-08T00:05:37.617Z,56.66
2023-02-08T00:07:41.456Z,57.11
2023-02-08T00:09:45.252Z,56.37
2023-02-08T00:11:50.692Z,56.66
2023-02-08T00:13:54.846Z,56.74
2023-02-08T00:15:58.713Z,56.69
2023-02-08T00:18:02.899Z,57.01
2023-02-08T00:20:07.596Z,56.83
2023-02-08T00:22:11.445Z,56.31
2023-02-08T00:24:15.317Z,56.50
2023-02-08T00:26:19.134Z,56.84
2023-02-08T00:28:24.509Z,56.57
2023-02-08T00:30:28.481Z,56.22
2023-02-08T00:32:32.324Z,56.67
2023-02-08T00:34:36.198Z,56.25
2023-02-08T00:36:40.053Z,56.00
2023-02-08T00:38:45.501Z,56.45
2023-02-08T00:40:49.342Z,56.63
2023-02-08T00:42:54.818Z,57.06
2023-02-08T00:45:00.126Z,56.72
2023-02-08T00:47:03.941Z,56.48
2023-02-08T00:49:09.292Z,56.51
2023-02-08T00:51:15.243Z,56.89
2023-02-08T00:53:19.079Z,56.81
2023-02-08T00:55:22.946Z,57.23
2023-02-08T00:57:26.750Z,56.58
2023-02-08T00:59:30.560Z,56.41
2023-02-08T01:01:35.828Z,56.39
2023-02-08T01:03:41.589Z,56.58
2023-02-08T01:05:45.441Z,55.96
2023-02-08T01:07:49.645Z,56.15
2023-02-08T01:09:53.509Z,56.06
2023-02-08T01:11:57.591Z,55.88
2023-02-08T01:14:01.468Z,55.94
2023-02-08T01:16:10.617Z,55.67
2023-02-08T01:18:15.780Z,56.11
2023-02-08T01:20:20.194Z,56.18
2023-02-08T01:22:24.041Z,55.73
2023-02-08T01:24:27.852Z,56.54
2023-02-08T01:26:32.260Z,55.83
2023-02-08T01:28:36.239Z,55.65
2023-02-08T01:30:40.337Z,55.72
2023-02-08T01:32:45.761Z,55.57
2023-02-08T01:34:50.955Z,55.56
2023-02-08T01:36:55.324Z,55.66
2023-02-08T01:38:59.519Z,55.77
2023-02-08T01:41:03.579Z,55.60
2023-02-08T01:43:10.807Z,55.74
2023-02-08T01:45:27.991Z,56.06
2023-02-08T01:47:31.874Z,55.87
2023-02-08T01:49:36.980Z,56.02
2023-02-08T01:51:46.424Z,55.83
2023-02-08T01:53:51.034Z,55.96
2023-02-08T01:55:56.866Z,55.98
2023-02-08T01:58:02.759Z,56.31
2023-02-08T02:00:10.824Z,56.18
2023-02-08T02:02:22.664Z,55.37
2023-02-08T02:04:26.703Z,55.43
2023-02-08T02:06:33.926Z,56.10
2023-02-08T02:08:39.384Z,55.80
2023-02-08T02:10:45.115Z,55.69
2023-02-08T02:12:49.123Z,55.77
2023-02-08T02:14:53.159Z,56.14
2023-02-08T02:16:56.953Z,56.05
2023-02-08T02:19:00.806Z,55.65
2023-02-08T02:21:32.527Z,55.98
2023-02-08T02:24:11.822Z,56.12
2023-02-08T02:26:53.027Z,56.02
2023-02-08T02:29:45.594Z,56.26
2023-02-08T02:32:00.854Z,55.96
2023-02-08T02:34:05.873Z,55.78
2023-02-08T02:36:15.901Z,55.71
2023-02-08T02:38:28.917Z,56.04
2023-02-08T02:40:41.122Z,56.40
2023-02-08T02:43:19.959Z,55.92
2023-02-08T02:45:29.735Z,56.04
2023-02-08T02:47:39.863Z,56.12
2023-02-08T02:49:49.271Z,56.01
2023-02-08T02:51:58.744Z,56.02
2023-02-08T02:54:05.764Z,55.71
2023-02-08T02:56:13.378Z,55.94
2023-02-08T02:58:17.604Z,55.88
2023-02-08T03:00:24.366Z,55.69
2023-02-08T03:02:28.858Z,55.60
2023-02-08T03:04:55.144Z,56.05
2023-02-08T03:07:03.461Z,55.60
2023-02-08T03:09:26.820Z,56.19
2023-02-08T03:11:32.641Z,55.66
2023-02-08T03:13:48.196Z,56.00
2023-02-08T03:16:01.275Z,55.56
2023-02-08T03:18:11.981Z,55.92
2023-02-08T03:20:17.525Z,56.27
2023-02-08T03:22:23.571Z,55.77
2023-02-08T03:24:30.195Z,56.12
2023-02-08T03:26:37.210Z,55.72
2023-02-08T03:28:42.539Z,55.94
2023-02-08T03:30:52.287Z,56.04
2023-02-08T03:32:58.760Z,55.88
2023-02-08T03:35:04.811Z,55.60
2023-02-08T03:37:12.314Z,55.91
2023-02-08T03:39:20.330Z,55.73
2023-02-08T03:41:27.549Z,56.21
2023-02-08T03:43:33.630Z,56.29
2023-02-08T03:45:40.695Z,55.74
2023-02-08T03:47:44.788Z,55.89
2023-02-08T03:49:49.696Z,55.54
2023-02-08T03:51:53.667Z,56.33
2023-02-08T03:53:58.884Z,55.88
2023-02-08T03:56:03.481Z,56.11
2023-02-08T03:58:11.779Z,55.54
2023-02-08T04:00:17.351Z,55.96
2023-02-08T04:02:22.385Z,55.98
2023-02-08T04:04:26.326Z,56.18
2023-02-08T04:06:30.160Z,56.23
2023-02-08T04:08:34.041Z,56.05
2023-02-08T04:10:40.010Z,56.26
2023-02-08T04:12:44.332Z,55.96
2023-02-08T04:14:48.676Z,55.77
2023-02-08T04:16:52.673Z,55.70
2023-02-08T04:18:56.524Z,55.79
2023-02-08T04:21:00.327Z,56.08
2023-02-08T04:23:04.200Z,56.36
2023-02-08T04:25:08.142Z,56.18
2023-02-08T04:27:13.323Z,56.20
2023-02-08T04:29:17.157Z,56.30
2023-02-08T04:31:21.173Z,55.96
2023-02-08T04:33:25.089Z,56.37
2023-02-08T04:35:29.174Z,56.00
2023-02-08T04:37:33.307Z,55.98
2023-02-08T04:39:37.109Z,56.36
2023-02-08T04:41:42.515Z,56.62
2023-02-08T04:43:47.691Z,56.65
2023-02-08T04:45:51.556Z,56.02
2023-02-08T04:47:55.369Z,56.04
2023-02-08T04:49:59.218Z,56.46
2023-02-08T04:52:03.091Z,55.61
2023-02-08T04:54:06.932Z,56.18
2023-02-08T04:56:10.782Z,56.06
2023-02-08T04:58:14.642Z,55.83
2023-02-08T05:00:20.492Z,56.08
2023-02-08T05:02:24.799Z,56.19
2023-02-08T05:04:28.630Z,56.10
2023-02-08T05:06:32.493Z,55.97
2023-02-08T05:08:36.720Z,56.26
2023-02-08T05:10:45.945Z,56.30
2023-02-08T05:12:49.795Z,56.47
2023-02-08T05:14:53.901Z,56.47
2023-02-08T05:16:59.187Z,56.38
2023-02-08T05:19:03.060Z,56.04
2023-02-08T05:21:07.124Z,56.10
2023-02-08T05:23:10.981Z,56.59
2023-02-08T05:25:15.134Z,56.56
2023-02-08T05:27:19.091Z,56.55
2023-02-08T05:29:23.240Z,56.29
2023-02-08T05:31:27.168Z,56.26
2023-02-08T05:33:33.040Z,56.69
2023-02-08T05:35:36.835Z,56.51
2023-02-08T05:37:40.647Z,56.30
2023-02-08T05:39:44.484Z,56.42
2023-02-08T05:41:48.296Z,56.31
2023-02-08T05:43:52.111Z,56.06
2023-02-08T05:45:55.971Z,56.43
2023-02-08T05:47:59.791Z,56.30
2023-02-08T05:50:05.781Z,56.17
2023-02-08T05:52:09.980Z,56.04
2023-02-08T05:54:13.801Z,56.24
2023-02-08T05:56:17.639Z,56.01
2023-02-08T05:58:21.833Z,56.38
2023-02-08T06:00:25.830Z,55.97
2023-02-08T06:02:29.683Z,56.30
2023-02-08T06:04:33.887Z,55.82
2023-02-08T06:06:39.054Z,56.49
2023-02-08T06:08:42.892Z,55.98
2023-02-08T06:10:49.351Z,55.91
2023-02-08T06:12:53.165Z,55.90
2023-02-08T06:14:57.067Z,56.00
2023-02-08T06:17:00.950Z,55.82
2023-02-08T06:19:04.745Z,55.75
2023-02-08T06:21:08.553Z,55.71
2023-02-08T06:23:13.721Z,55.81
2023-02-08T06:25:17.733Z,56.03
2023-02-08T06:27:21.748Z,55.92
2023-02-08T06:29:25.859Z,55.78
2023-02-08T06:31:29.712Z,56.08
2023-02-08T06:33:33.553Z,55.92
2023-02-08T06:35:37.951Z,55.87
2023-02-08T06:37:41.792Z,55.75
2023-02-08T06:39:46.943Z,55.66
2023-02-08T06:41:50.788Z,55.69
2023-02-08T06:43:54.608Z,55.70
2023-02-08T06:45:58.560Z,55.43
2023-02-08T06:48:02.424Z,55.26
2023-02-08T06:50:07.399Z,55.53
2023-02-08T06:52:11.208Z,55.68
2023-02-08T06:54:15.909Z,55.44
2023-02-08T06:56:21.092Z,55.81
2023-02-08T06:58:24.913Z,55.51
2023-02-08T07:00:28.771Z,55.69
2023-02-08T07:02:32.668Z,55.75
2023-02-08T07:04:36.883Z,55.47
2023-02-08T07:06:40.707Z,55.64
2023-02-08T07:08:44.526Z,55.95
2023-02-08T07:10:48.532Z,55.73
2023-02-08T07:12:53.728Z,55.13
2023-02-08T07:14:57.662Z,55.42
2023-02-08T07:17:02.072Z,55.48
2023-02-08T07:19:05.958Z,55.33
2023-02-08T07:21:11.308Z,55.63
2023-02-08T07:23:15.138Z,55.76
2023-02-08T07:25:19.205Z,55.16
2023-02-08T07:27:25.942Z,55.43
2023-02-08T07:29:31.866Z,55.03
2023-02-08T07:31:35.710Z,55.53
2023-02-08T07:33:39.559Z,55.32
2023-02-08T07:35:43.427Z,55.24
2023-02-08T07:37:47.347Z,55.17
2023-02-08T07:40:42.740Z,54.36
2023-02-08T07:42:47.058Z,55.07
2023-02-08T07:45:06.865Z,55.21
2023-02-08T07:47:11.153Z,55.89
2023-02-08T07:49:16.894Z,55.47
2023-02-08T07:51:23.045Z,54.83
2023-02-08T07:53:26.879Z,55.87
2023-02-08T07:55:32.681Z,56.78
2023-02-08T07:57:53.045Z,57.43
2023-02-08T08:01:19.717Z,57.54
2023-02-08T08:04:21.354Z,57.42
2023-02-08T08:06:31.190Z,57.72
2023-02-08T08:08:35.353Z,57.26
2023-02-08T08:11:34.113Z,57.49
2023-02-08T08:13:39.112Z,57.38
2023-02-08T08:15:45.425Z,57.06
2023-02-08T08:17:50.844Z,56.78
2023-02-08T08:19:54.876Z,57.20
2023-02-08T08:21:58.808Z,57.50
2023-02-08T08:24:02.840Z,57.91
2023-02-08T08:26:10.496Z,57.85
2023-02-08T08:28:15.209Z,57.84
2023-02-08T08:30:19.694Z,57.83
2023-02-08T08:32:23.805Z,57.69
2023-02-08T08:34:33.581Z,57.70
2023-02-08T08:36:43.916Z,57.35
2023-02-08T08:41:52.690Z,57.14
2023-02-08T08:44:11.064Z,56.79
2023-02-08T08:46:16.651Z,56.97
2023-02-08T08:48:23.652Z,56.83
2023-02-08T08:50:29.569Z,56.53
2023-02-08T09:07:09.336Z,55.97
2023-02-08T09:09:14.991Z,55.46
2023-02-08T09:11:19.194Z,55.99
2023-02-08T09:13:26.370Z,55.77
2023-02-08T09:15:30.587Z,55.68
2023-02-08T09:17:34.623Z,55.47
2023-02-08T09:19:38.571Z,55.28
2023-02-08T09:25:10.356Z,55.18
2023-02-08T09:27:14.811Z,55.39
2023-02-08T09:29:47.513Z,55.57
2023-02-08T09:33:08.161Z,55.86
2023-02-08T09:35:00.739Z,55.87
2023-02-08T09:43:10.554Z,55.89
2023-02-08T09:45:59.934Z,56.00
2023-02-08T09:48:20.809Z,55.91
2023-02-08T09:50:33.989Z,56.01
2023-02-08T09:54:15.292Z,55.75
2023-02-08T09:56:22.586Z,55.67
2023-02-08T09:58:29.321Z,55.50
2023-02-08T10:00:36.435Z,55.23
2023-02-08T10:03:39.523Z,55.60
2023-02-08T10:05:53.281Z,55.35
2023-02-08T10:08:01.163Z,55.77
2023-02-08T10:10:08.022Z,55.55
2023-02-08T10:12:18.416Z,55.40
2023-02-08T10:15:02.973Z,55.45
2023-02-08T10:17:21.291Z,55.82
2023-02-08T10:20:29.050Z,55.77
2023-02-08T10:22:40.978Z,55.76
2023-02-08T10:25:15.247Z,55.68
2023-02-08T10:27:23.717Z,55.29
2023-02-08T10:30:10.164Z,54.94
2023-02-08T10:32:35.282Z,55.05
2023-02-08T10:34:45.881Z,55.14
2023-02-08T10:36:50.249Z,54.61
2023-02-08T10:38:58.410Z,55.22
2023-02-08T10:41:03.701Z,55.51
2023-02-08T10:43:20.785Z,55.53
2023-02-08T10:45:27.328Z,55.45
2023-02-08T10:51:39.607Z,54.71
2023-02-08T10:57:50.155Z,54.99
2023-02-08T11:01:11.099Z,54.60
2023-02-08T11:04:02.265Z,55.03
2023-02-08T11:06:06.713Z,54.68
2023-02-08T11:08:13.955Z,54.25
2023-02-08T11:10:27.744Z,54.10
2023-02-08T11:12:31.605Z,54.60
2023-02-08T11:14:46.604Z,54.87
2023-02-08T11:16:52.464Z,54.33
2023-02-08T11:19:01.271Z,54.72
2023-02-08T11:21:07.965Z,54.90
2023-02-08T11:23:23.879Z,55.09
2023-02-08T11:25:37.895Z,55.95
2023-02-08T11:27:45.040Z,55.48
2023-02-08T11:29:48.927Z,55.69
2023-02-08T11:32:01.470Z,55.43
2023-02-08T11:34:06.678Z,55.08
2023-02-08T11:36:13.452Z,55.89
2023-02-08T11:38:27.230Z,57.40
2023-02-08T11:40:33.916Z,57.91
2023-02-08T11:42:39.081Z,56.79
2023-02-08T11:44:44.561Z,56.66
2023-02-08T11:46:48.805Z,57.24
2023-02-08T11:48:55.136Z,58.38
2023-02-08T11:51:00.947Z,59.28
2023-02-08T11:53:07.945Z,59.28
2023-02-08T11:55:25.111Z,58.85
2023-02-08T11:57:29.544Z,59.01
2023-02-08T11:59:34.001Z,59.29
2023-02-08T12:01:42.433Z,59.31
2023-02-08T12:03:47.951Z,58.83
2023-02-08T12:05:57.712Z,59.24
2023-02-08T12:08:09.319Z,59.49
2023-02-08T12:10:50.074Z,58.58
2023-02-08T12:13:10.711Z,58.95
2023-02-08T12:15:24.929Z,59.46
2023-02-08T12:33:46.402Z,32.07
2023-02-08T12:52:34.809Z,30.08
2023-02-08T13:30:33.214Z,28.59
2023-02-08T13:32:41.462Z,28.43
2023-02-08T13:34:48.876Z,28.56
2023-02-08T13:36:55.690Z,28.47
2023-02-08T13:39:00.137Z,28.26
2023-02-08T13:41:14.180Z,28.12
2023-02-08T13:43:34.782Z,28.14
2023-02-08T13:45:42.812Z,28.08
2023-02-08T13:47:49.443Z,28.07
2023-02-08T13:49:56.841Z,28.25
2023-02-08T13:52:02.255Z,28.46
2023-02-08T13:54:11.652Z,28.17
2023-02-08T13:56:21.174Z,28.41
2023-02-08T13:59:04.534Z,28.25
2023-02-08T14:01:19.647Z,28.18
2023-02-08T14:03:25.011Z,27.97
2023-02-08T14:05:48.538Z,27.93
2023-02-08T14:07:52.365Z,27.76
2023-02-08T14:10:31.896Z,27.71
2023-02-08T14:12:40.974Z,27.57
2023-02-08T14:14:44.811Z,27.62
2023-02-08T14:17:10.023Z,27.41
2023-02-08T14:19:24.566Z,27.66
2023-02-08T14:21:33.558Z,27.36
2023-02-08T14:23:40.489Z,27.21
2023-02-08T14:25:46.332Z,27.46
2023-02-08T14:27:54.823Z,27.52
2023-02-08T14:30:00.169Z,27.34
2023-02-08T14:32:06.215Z,27.50
2023-02-08T14:34:25.323Z,27.75
2023-02-08T14:36:36.770Z,27.33
2023-02-08T14:39:25.060Z,27.40
2023-02-08T14:45:31.192Z,27.32
2023-02-08T14:48:23.559Z,27.32
2023-02-08T14:50:42.860Z,27.07
2023-02-08T15:11:24.972Z,27.18
2023-02-08T15:32:22.777Z,26.99
2023-02-08T15:34:35.995Z,26.83
2023-02-08T15:44:19.787Z,26.87
2023-02-08T15:46:26.650Z,26.85
2023-02-08T15:49:24.057Z,26.50
2023-02-08T15:54:17.869Z,26.68
2023-02-08T15:56:35.735Z,27.04
2023-02-08T15:58:41.607Z,27.25
2023-02-08T16:15:39.292Z,27.21
2023-02-08T16:25:51.264Z,27.28
2023-02-08T16:27:55.728Z,27.00
2023-02-08T16:29:59.754Z,27.17
2023-02-08T16:32:11.915Z,27.31
2023-02-08T16:48:13.524Z,27.00
2023-02-08T16:50:24.080Z,27.03
2023-02-08T16:53:48.718Z,26.90
2023-02-08T16:57:09.159Z,26.79
2023-02-08T17:19:16.292Z,26.76
2023-02-08T17:45:36.048Z,30.61
2023-02-08T17:51:02.116Z,31.38
2023-02-08T17:53:46.864Z,32.48
2023-02-08T17:55:51.157Z,33.18
2023-02-08T17:58:10.710Z,33.65
2023-02-08T18:00:22.428Z,34.02
2023-02-08T18:03:11.325Z,34.54
2023-02-08T18:05:16.080Z,34.78
2023-02-08T18:08:14.582Z,35.34
2023-02-08T18:15:59.249Z,36.00
2023-02-08T18:18:05.390Z,36.10
2023-02-08T18:18:09.243Z,35.49
2023-02-08T18:20:16.791Z,36.37
2023-02-08T18:26:40.951Z,37.18
2023-02-08T18:29:35.883Z,37.46
2023-02-08T18:31:46.730Z,37.83
2023-02-08T18:34:43.631Z,37.87
2023-02-08T18:40:43.819Z,39.04
2023-02-08T18:42:56.542Z,38.89
2023-02-08T18:46:07.764Z,39.55
2023-02-08T18:48:15.814Z,39.54
2023-02-08T18:50:55.712Z,39.57
2023-02-08T18:56:47.656Z,39.96
2023-02-08T19:04:36.033Z,40.26
2023-02-08T19:06:47.764Z,40.29
2023-02-08T19:09:12.410Z,39.91
2023-02-08T19:11:28.295Z,39.90
2023-02-08T19:18:04.083Z,40.45
2023-02-08T19:31:22.786Z,41.95
2023-02-08T19:34:07.722Z,42.12
2023-02-08T19:36:39.419Z,41.99
2023-02-08T19:49:47.997Z,42.42
2023-02-08T19:51:53.042Z,42.68
2023-02-08T19:54:01.537Z,42.28
2023-02-08T19:56:10.739Z,42.44
2023-02-08T19:58:16.118Z,42.57
2023-02-08T20:00:46.487Z,42.57
2023-02-08T20:03:05.721Z,42.91
2023-02-08T20:06:27.755Z,43.17
2023-02-08T20:12:30.557Z,43.10
2023-02-08T20:14:47.643Z,43.15
2023-02-08T20:21:07.813Z,42.99
2023-02-08T20:23:22.685Z,43.54
2023-02-08T20:25:36.437Z,43.49
2023-02-08T20:27:43.194Z,43.33
2023-02-08T20:29:47.803Z,43.25
2023-02-08T20:31:55.820Z,43.27
2023-02-08T20:34:03.374Z,43.00
2023-02-08T20:36:11.102Z,43.37
2023-02-08T20:38:15.510Z,43.20
2023-02-08T20:40:20.270Z,43.71
2023-02-08T20:42:24.603Z,43.22
2023-02-08T20:44:29.196Z,43.55
2023-02-08T20:46:40.981Z,43.70
2023-02-08T20:49:48.511Z,43.68
2023-02-08T21:44:25.322Z,45.46
2023-02-08T21:46:30.294Z,44.93
2023-02-08T21:48:54.690Z,45.16
2023-02-08T21:51:19.121Z,44.69
2023-02-08T21:53:40.826Z,45.13
2023-02-08T21:55:48.531Z,45.32
2023-02-08T21:57:53.865Z,45.22
2023-02-08T21:59:59.515Z,45.50
2023-02-08T22:02:05.627Z,45.11
2023-02-08T22:04:09.780Z,44.58
2023-02-08T22:06:16.541Z,45.08
2023-02-08T22:08:20.895Z,44.76
2023-02-08T22:10:26.520Z,44.88
2023-02-08T22:12:36.641Z,45.20
2023-02-08T22:14:41.197Z,42.29
2023-02-08T22:16:46.098Z,42.09
2023-02-08T22:18:50.383Z,35.83
2023-02-08T22:20:54.561Z,43.16
2023-02-08T22:22:58.920Z,40.85
2023-02-08T22:25:03.345Z,37.39
2023-02-08T22:27:07.732Z,35.19
2023-02-08T22:29:16.291Z,34.87
2023-02-08T22:31:20.697Z,34.58
2023-02-08T22:33:25.066Z,35.05
2023-02-08T22:35:29.361Z,36.19
2023-02-08T22:37:35.504Z,35.41
2023-02-08T22:39:39.934Z,35.33
2023-02-08T22:41:44.117Z,35.49
2023-02-08T22:43:48.934Z,35.75
2023-02-08T22:46:01.174Z,36.46
2023-02-08T22:48:06.816Z,36.93
2023-02-08T22:50:11.431Z,37.09
2023-02-08T22:52:15.725Z,37.29
2023-02-08T22:54:20.036Z,38.30
2023-02-08T22:56:25.216Z,37.61
2023-02-08T22:58:29.612Z,37.79
2023-02-08T23:00:34.009Z,37.55
2023-02-08T23:02:40.020Z,37.46
2023-02-08T23:04:44.279Z,38.23
2023-02-08T23:06:48.685Z,38.19
2023-02-08T23:08:53.274Z,38.18
2023-02-08T23:11:00.544Z,38.42
2023-02-08T23:13:04.608Z,39.02
2023-02-08T23:15:10.928Z,39.21
2023-02-08T23:17:14.796Z,39.61
2023-02-08T23:19:20.129Z,39.12
2023-02-08T23:21:24.051Z,39.50
2023-02-08T23:23:27.925Z,39.28
2023-02-08T23:25:31.893Z,39.00
2023-02-08T23:27:35.827Z,39.17
2023-02-08T23:29:39.796Z,39.28
2023-02-08T23:31:44.614Z,39.80
2023-02-08T23:33:48.636Z,39.58
2023-02-08T23:35:54.229Z,40.07
2023-02-08T23:37:58.104Z,40.39
2023-02-08T23:40:02.008Z,39.68
2023-02-08T23:42:06.227Z,39.91
2023-02-08T23:44:10.175Z,39.84
2023-02-08T23:46:17.476Z,39.94
2023-02-08T23:48:21.937Z,40.12
2023-02-08T23:50:25.867Z,40.75
2023-02-08T23:52:31.149Z,40.78
2023-02-08T23:54:35.056Z,41.24
2023-02-08T23:56:40.750Z,40.15
2023-02-08T23:58:44.960Z,40.12
